sensor_id;sensor_type;location;lat;lon;timestamp;temperature;humidity
47805;DHT22;33568;45.286;9.900;2023-04-24T00:00:31;19.20;64.80
47805;DHT22;33568;45.286;9.900;2023-04-24T00:02:58;19.00;67.30
47805;DHT22;33568;45.286;9.900;2023-04-24T00:05:24;19.00;65.70
47805;DHT22;33568;45.286;9.900;2023-04-24T00:07:50;19.00;68.30
47805;DHT22;33568;45.286;9.900;2023-04-24T00:10:18;19.00;66.20
47805;DHT22;33568;45.286;9.900;2023-04-24T00:12:45;19.00;66.70
47805;DHT22;33568;45.286;9.900;2023-04-24T00:15:11;19.10;67.10
47805;DHT22;33568;45.286;9.900;2023-04-24T00:17:38;19.10;67.50
47805;DHT22;33568;45.286;9.900;2023-04-24T00:20:05;19.10;67.90
47805;DHT22;33568;45.286;9.900;2023-04-24T00:22:33;19.00;69.40
47805;DHT22;33568;45.286;9.900;2023-04-24T00:24:59;18.90;69.90
47805;DHT22;33568;45.286;9.900;2023-04-24T00:27:26;18.80;71.10
47805;DHT22;33568;45.286;9.900;2023-04-24T00:29:52;18.70;72.20
47805;DHT22;33568;45.286;9.900;2023-04-24T00:32:18;18.60;74.80
47805;DHT22;33568;45.286;9.900;2023-04-24T00:34:45;18.60;73.20
47805;DHT22;33568;45.286;9.900;2023-04-24T00:37:11;18.50;76.90
47805;DHT22;33568;45.286;9.900;2023-04-24T00:39:38;18.40;74.60
47805;DHT22;33568;45.286;9.900;2023-04-24T00:42:05;18.40;76.30
47805;DHT22;33568;45.286;9.900;2023-04-24T00:44:35;18.40;77.40
47805;DHT22;33568;45.286;9.900;2023-04-24T00:47:02;18.30;78.10
47805;DHT22;33568;45.286;9.900;2023-04-24T00:49:28;18.30;79.00
47805;DHT22;33568;45.286;9.900;2023-04-24T00:51:55;18.30;79.90
47805;DHT22;33568;45.286;9.900;2023-04-24T00:54:23;18.20;80.50
47805;DHT22;33568;45.286;9.900;2023-04-24T00:56:51;18.20;81.10
47805;DHT22;33568;45.286;9.900;2023-04-24T00:59:17;18.10;81.50
47805;DHT22;33568;45.286;9.900;2023-04-24T01:01:44;18.10;81.90
47805;DHT22;33568;45.286;9.900;2023-04-24T01:04:12;18.00;82.40
47805;DHT22;33568;45.286;9.900;2023-04-24T01:06:40;18.00;82.80
47805;DHT22;33568;45.286;9.900;2023-04-24T01:09:10;18.00;83.20
47805;DHT22;33568;45.286;9.900;2023-04-24T01:11:37;18.00;83.70
47805;DHT22;33568;45.286;9.900;2023-04-24T01:14:05;18.10;83.70
47805;DHT22;33568;45.286;9.900;2023-04-24T01:16:32;18.00;84.30
47805;DHT22;33568;45.286;9.900;2023-04-24T01:18:58;18.00;85.40
47805;DHT22;33568;45.286;9.900;2023-04-24T01:21:26;18.00;87.80
47805;DHT22;33568;45.286;9.900;2023-04-24T01:23:57;18.00;84.80
47805;DHT22;33568;45.286;9.900;2023-04-24T01:26:23;18.00;85.30
47805;DHT22;33568;45.286;9.900;2023-04-24T01:28:53;18.00;86.00
47805;DHT22;33568;45.286;9.900;2023-04-24T01:31:20;17.90;87.10
47805;DHT22;33568;45.286;9.900;2023-04-24T01:33:47;17.70;88.20
47805;DHT22;33568;45.286;9.900;2023-04-24T01:36:13;17.60;89.30
47805;DHT22;33568;45.286;9.900;2023-04-24T01:38:40;17.50;90.00
47805;DHT22;33568;45.286;9.900;2023-04-24T01:41:06;17.40;90.40
47805;DHT22;33568;45.286;9.900;2023-04-24T01:43:32;17.20;92.10
47805;DHT22;33568;45.286;9.900;2023-04-24T01:45:59;17.20;90.80
47805;DHT22;33568;45.286;9.900;2023-04-24T01:48:25;17.20;93.00
47805;DHT22;33568;45.286;9.900;2023-04-24T01:50:52;17.20;91.20
47805;DHT22;33568;45.286;9.900;2023-04-24T01:53:18;17.20;91.50
47805;DHT22;33568;45.286;9.900;2023-04-24T01:55:44;17.10;93.50
47805;DHT22;33568;45.286;9.900;2023-04-24T01:58:13;17.10;92.10
47805;DHT22;33568;45.286;9.900;2023-04-24T02:00:39;17.00;92.60
47805;DHT22;33568;45.286;9.900;2023-04-24T02:03:05;16.90;92.90
47805;DHT22;33568;45.286;9.900;2023-04-24T02:05:32;16.80;94.80
47805;DHT22;33568;45.286;9.900;2023-04-24T02:07:58;16.80;93.20
47805;DHT22;33568;45.286;9.900;2023-04-24T02:10:24;16.70;95.50
47805;DHT22;33568;45.286;9.900;2023-04-24T02:12:51;16.80;93.50
47805;DHT22;33568;45.286;9.900;2023-04-24T02:15:17;16.70;93.90
47805;DHT22;33568;45.286;9.900;2023-04-24T02:17:44;16.70;94.40
47805;DHT22;33568;45.286;9.900;2023-04-24T02:20:10;16.70;94.60
47805;DHT22;33568;45.286;9.900;2023-04-24T02:22:38;16.60;96.60
47805;DHT22;33568;45.286;9.900;2023-04-24T02:25:04;16.60;95.00
47805;DHT22;33568;45.286;9.900;2023-04-24T02:27:32;16.50;96.90
47805;DHT22;33568;45.286;9.900;2023-04-24T02:29:58;16.50;95.30
47805;DHT22;33568;45.286;9.900;2023-04-24T02:32:24;16.40;97.20
47805;DHT22;33568;45.286;9.900;2023-04-24T02:34:51;16.40;95.70
47805;DHT22;33568;45.286;9.900;2023-04-24T02:37:17;16.30;98.20
47805;DHT22;33568;45.286;9.900;2023-04-24T02:39:43;16.20;96.40
47805;DHT22;33568;45.286;9.900;2023-04-24T02:42:10;16.20;96.70
47805;DHT22;33568;45.286;9.900;2023-04-24T02:44:36;16.10;98.50
47805;DHT22;33568;45.286;9.900;2023-04-24T02:47:02;16.10;97.00
47805;DHT22;33568;45.286;9.900;2023-04-24T02:49:30;16.10;99.00
47805;DHT22;33568;45.286;9.900;2023-04-24T02:51:56;16.20;97.10
47805;DHT22;33568;45.286;9.900;2023-04-24T02:54:23;16.20;98.90
47805;DHT22;33568;45.286;9.900;2023-04-24T02:56:49;16.20;97.00
47805;DHT22;33568;45.286;9.900;2023-04-24T02:59:16;16.20;97.10
47805;DHT22;33568;45.286;9.900;2023-04-24T03:01:42;16.20;97.40
47805;DHT22;33568;45.286;9.900;2023-04-24T03:04:09;16.20;98.80
47805;DHT22;33568;45.286;9.900;2023-04-24T03:06:36;16.30;97.10
47805;DHT22;33568;45.286;9.900;2023-04-24T03:09:02;16.40;97.10
47805;DHT22;33568;45.286;9.900;2023-04-24T03:11:29;16.50;97.20
47805;DHT22;33568;45.286;9.900;2023-04-24T03:13:56;16.50;97.10
47805;DHT22;33568;45.286;9.900;2023-04-24T03:16:22;16.60;97.10
47805;DHT22;33568;45.286;9.900;2023-04-24T03:18:48;16.70;97.10
47805;DHT22;33568;45.286;9.900;2023-04-24T03:21:15;16.70;97.10
47805;DHT22;33568;45.286;9.900;2023-04-24T03:23:43;16.80;97.20
47805;DHT22;33568;45.286;9.900;2023-04-24T03:26:10;16.80;97.20
47805;DHT22;33568;45.286;9.900;2023-04-24T03:28:41;16.80;97.10
47805;DHT22;33568;45.286;9.900;2023-04-24T03:31:08;16.80;97.10
47805;DHT22;33568;45.286;9.900;2023-04-24T03:33:36;16.80;97.20
47805;DHT22;33568;45.286;9.900;2023-04-24T03:36:02;16.90;97.30
47805;DHT22;33568;45.286;9.900;2023-04-24T03:38:36;16.80;98.00
47805;DHT22;33568;45.286;9.900;2023-04-24T03:41:29;16.80;97.10
47805;DHT22;33568;45.286;9.900;2023-04-24T03:44:16;16.70;97.20
47805;DHT22;33568;45.286;9.900;2023-04-24T03:46:43;16.60;98.60
47805;DHT22;33568;45.286;9.900;2023-04-24T03:49:09;16.70;97.20
47805;DHT22;33568;45.286;9.900;2023-04-24T03:51:39;16.70;98.30
47805;DHT22;33568;45.286;9.900;2023-04-24T03:54:16;16.80;97.00
47805;DHT22;33568;45.286;9.900;2023-04-24T03:56:42;16.70;98.00
47805;DHT22;33568;45.286;9.900;2023-04-24T03:59:09;16.70;96.90
47805;DHT22;33568;45.286;9.900;2023-04-24T04:01:37;16.80;96.90
47805;DHT22;33568;45.286;9.900;2023-04-24T04:04:12;16.70;97.10
47805;DHT22;33568;45.286;9.900;2023-04-24T04:06:39;16.80;97.20
47805;DHT22;33568;45.286;9.900;2023-04-24T04:09:06;16.80;97.30
47805;DHT22;33568;45.286;9.900;2023-04-24T04:11:35;16.80;97.40
47805;DHT22;33568;45.286;9.900;2023-04-24T04:14:02;16.80;97.60
47805;DHT22;33568;45.286;9.900;2023-04-24T04:16:28;16.80;97.60
47805;DHT22;33568;45.286;9.900;2023-04-24T04:19:01;16.90;97.60
47805;DHT22;33568;45.286;9.900;2023-04-24T04:21:29;16.90;97.50
47805;DHT22;33568;45.286;9.900;2023-04-24T04:24:06;16.90;97.50
47805;DHT22;33568;45.286;9.900;2023-04-24T04:26:38;16.90;98.30
47805;DHT22;33568;45.286;9.900;2023-04-24T04:29:07;16.90;97.30
47805;DHT22;33568;45.286;9.900;2023-04-24T04:31:36;16.80;97.30
47805;DHT22;33568;45.286;9.900;2023-04-24T04:34:08;16.70;97.40
47805;DHT22;33568;45.286;9.900;2023-04-24T04:36:35;16.70;97.60
47805;DHT22;33568;45.286;9.900;2023-04-24T04:39:11;16.70;97.60
47805;DHT22;33568;45.286;9.900;2023-04-24T04:41:47;16.80;97.90
47805;DHT22;33568;45.286;9.900;2023-04-24T04:44:15;16.70;97.70
47805;DHT22;33568;45.286;9.900;2023-04-24T04:46:42;16.80;97.70
47805;DHT22;33568;45.286;9.900;2023-04-24T04:49:32;16.80;97.70
47805;DHT22;33568;45.286;9.900;2023-04-24T04:52:00;16.80;97.70
47805;DHT22;33568;45.286;9.900;2023-04-24T04:54:27;16.70;97.80
47805;DHT22;33568;45.286;9.900;2023-04-24T04:56:54;16.80;97.80
47805;DHT22;33568;45.286;9.900;2023-04-24T04:59:22;16.70;97.90
47805;DHT22;33568;45.286;9.900;2023-04-24T05:01:52;16.70;98.00
47805;DHT22;33568;45.286;9.900;2023-04-24T05:04:19;16.70;98.10
47805;DHT22;33568;45.286;9.900;2023-04-24T05:06:45;16.70;98.20
47805;DHT22;33568;45.286;9.900;2023-04-24T05:09:13;16.70;98.20
47805;DHT22;33568;45.286;9.900;2023-04-24T05:11:47;16.60;98.30
47805;DHT22;33568;45.286;9.900;2023-04-24T05:14:14;16.50;98.60
47805;DHT22;33568;45.286;9.900;2023-04-24T05:16:42;16.50;98.70
47805;DHT22;33568;45.286;9.900;2023-04-24T05:19:10;16.50;98.70
47805;DHT22;33568;45.286;9.900;2023-04-24T05:21:41;16.50;98.90
47805;DHT22;33568;45.286;9.900;2023-04-24T05:24:08;16.50;99.00
47805;DHT22;33568;45.286;9.900;2023-04-24T05:26:53;16.60;98.90
47805;DHT22;33568;45.286;9.900;2023-04-24T05:29:25;16.60;98.90
47805;DHT22;33568;45.286;9.900;2023-04-24T05:31:53;16.60;98.90
47805;DHT22;33568;45.286;9.900;2023-04-24T05:34:20;16.60;99.10
47805;DHT22;33568;45.286;9.900;2023-04-24T05:36:51;16.70;99.20
47805;DHT22;33568;45.286;9.900;2023-04-24T05:39:17;16.80;99.10
47805;DHT22;33568;45.286;9.900;2023-04-24T05:41:44;16.90;99.10
47805;DHT22;33568;45.286;9.900;2023-04-24T05:44:10;16.90;99.20
47805;DHT22;33568;45.286;9.900;2023-04-24T05:46:36;16.90;99.00
47805;DHT22;33568;45.286;9.900;2023-04-24T05:49:03;16.80;99.70
47805;DHT22;33568;45.286;9.900;2023-04-24T05:51:31;16.90;98.90
47805;DHT22;33568;45.286;9.900;2023-04-24T05:53:58;16.90;99.00
47805;DHT22;33568;45.286;9.900;2023-04-24T05:56:26;16.90;98.80
47805;DHT22;33568;45.286;9.900;2023-04-24T05:58:52;16.90;99.00
47805;DHT22;33568;45.286;9.900;2023-04-24T06:01:19;17.00;99.10
47805;DHT22;33568;45.286;9.900;2023-04-24T06:03:53;17.00;99.00
47805;DHT22;33568;45.286;9.900;2023-04-24T06:06:20;16.90;99.00
47805;DHT22;33568;45.286;9.900;2023-04-24T06:08:46;16.80;99.60
47805;DHT22;33568;45.286;9.900;2023-04-24T06:11:13;16.80;99.20
47805;DHT22;33568;45.286;9.900;2023-04-24T06:13:40;16.90;99.90
47805;DHT22;33568;45.286;9.900;2023-04-24T06:16:25;17.00;98.90
47805;DHT22;33568;45.286;9.900;2023-04-24T06:18:59;17.10;98.80
47805;DHT22;33568;45.286;9.900;2023-04-24T06:21:25;17.00;98.80
47805;DHT22;33568;45.286;9.900;2023-04-24T06:23:52;17.10;98.90
47805;DHT22;33568;45.286;9.900;2023-04-24T06:26:18;17.00;98.90
47805;DHT22;33568;45.286;9.900;2023-04-24T06:28:44;16.90;99.50
47805;DHT22;33568;45.286;9.900;2023-04-24T06:31:10;16.80;99.10
47805;DHT22;33568;45.286;9.900;2023-04-24T06:33:38;16.70;99.90
47805;DHT22;33568;45.286;9.900;2023-04-24T06:36:05;16.60;99.90
47805;DHT22;33568;45.286;9.900;2023-04-24T06:38:32;16.80;99.30
47805;DHT22;33568;45.286;9.900;2023-04-24T06:41:00;16.90;99.20
47805;DHT22;33568;45.286;9.900;2023-04-24T06:43:26;17.00;99.10
47805;DHT22;33568;45.286;9.900;2023-04-24T06:45:52;17.00;99.80
47805;DHT22;33568;45.286;9.900;2023-04-24T06:48:19;17.20;98.90
47805;DHT22;33568;45.286;9.900;2023-04-24T06:50:45;17.30;98.80
47805;DHT22;33568;45.286;9.900;2023-04-24T06:53:12;17.30;98.70
47805;DHT22;33568;45.286;9.900;2023-04-24T06:55:40;17.40;98.70
47805;DHT22;33568;45.286;9.900;2023-04-24T06:58:07;17.40;98.70
47805;DHT22;33568;45.286;9.900;2023-04-24T07:00:34;17.40;98.70
47805;DHT22;33568;45.286;9.900;2023-04-24T07:03:00;17.40;98.80
47805;DHT22;33568;45.286;9.900;2023-04-24T07:05:27;17.40;98.80
47805;DHT22;33568;45.286;9.900;2023-04-24T07:07:54;17.40;99.30
47805;DHT22;33568;45.286;9.900;2023-04-24T07:10:20;17.50;98.70
47805;DHT22;33568;45.286;9.900;2023-04-24T07:12:47;17.60;98.60
47805;DHT22;33568;45.286;9.900;2023-04-24T07:15:13;17.60;98.60
47805;DHT22;33568;45.286;9.900;2023-04-24T07:17:40;17.50;99.20
47805;DHT22;33568;45.286;9.900;2023-04-24T07:20:10;17.60;98.70
47805;DHT22;33568;45.286;9.900;2023-04-24T07:22:37;17.50;98.50
47805;DHT22;33568;45.286;9.900;2023-04-24T07:25:05;17.40;98.70
47805;DHT22;33568;45.286;9.900;2023-04-24T07:27:31;17.50;98.70
47805;DHT22;33568;45.286;9.900;2023-04-24T07:29:58;17.50;98.80
47805;DHT22;33568;45.286;9.900;2023-04-24T07:32:24;17.70;98.70
47805;DHT22;33568;45.286;9.900;2023-04-24T07:34:50;17.80;99.10
47805;DHT22;33568;45.286;9.900;2023-04-24T07:37:16;18.00;98.20
47805;DHT22;33568;45.286;9.900;2023-04-24T07:39:43;18.10;98.30
47805;DHT22;33568;45.286;9.900;2023-04-24T07:42:09;18.40;97.60
47805;DHT22;33568;45.286;9.900;2023-04-24T07:44:35;18.50;97.00
47805;DHT22;33568;45.286;9.900;2023-04-24T07:47:02;18.80;96.90
47805;DHT22;33568;45.286;9.900;2023-04-24T07:49:28;18.90;96.70
47805;DHT22;33568;45.286;9.900;2023-04-24T07:51:54;19.20;96.20
47805;DHT22;33568;45.286;9.900;2023-04-24T07:54:21;19.10;96.10
47805;DHT22;33568;45.286;9.900;2023-04-24T07:56:47;19.30;96.00
47805;DHT22;33568;45.286;9.900;2023-04-24T07:59:14;19.50;95.80
47805;DHT22;33568;45.286;9.900;2023-04-24T08:01:40;19.60;95.50
47805;DHT22;33568;45.286;9.900;2023-04-24T08:04:07;19.60;95.30
47805;DHT22;33568;45.286;9.900;2023-04-24T08:06:34;19.60;95.30
47805;DHT22;33568;45.286;9.900;2023-04-24T08:09:00;19.60;95.20
47805;DHT22;33568;45.286;9.900;2023-04-24T08:11:27;19.60;95.10
47805;DHT22;33568;45.286;9.900;2023-04-24T08:13:53;19.40;94.90
47805;DHT22;33568;45.286;9.900;2023-04-24T08:16:20;19.20;95.20
47805;DHT22;33568;45.286;9.900;2023-04-24T08:18:47;19.20;95.40
47805;DHT22;33568;45.286;9.900;2023-04-24T08:21:13;19.10;95.40
47805;DHT22;33568;45.286;9.900;2023-04-24T08:23:43;19.00;95.70
47805;DHT22;33568;45.286;9.900;2023-04-24T08:26:10;19.30;95.30
47805;DHT22;33568;45.286;9.900;2023-04-24T08:28:37;19.80;94.60
47805;DHT22;33568;45.286;9.900;2023-04-24T08:31:04;20.20;93.90
47805;DHT22;33568;45.286;9.900;2023-04-24T08:33:30;20.20;93.60
47805;DHT22;33568;45.286;9.900;2023-04-24T08:36:05;20.20;93.80
47805;DHT22;33568;45.286;9.900;2023-04-24T08:38:32;20.10;93.50
47805;DHT22;33568;45.286;9.900;2023-04-24T08:40:59;20.00;93.50
47805;DHT22;33568;45.286;9.900;2023-04-24T08:43:26;20.00;93.50
47805;DHT22;33568;45.286;9.900;2023-04-24T08:45:56;20.10;93.10
47805;DHT22;33568;45.286;9.900;2023-04-24T08:48:23;20.50;92.60
47805;DHT22;33568;45.286;9.900;2023-04-24T08:50:53;20.70;92.10
47805;DHT22;33568;45.286;9.900;2023-04-24T08:53:20;21.00;91.60
47805;DHT22;33568;45.286;9.900;2023-04-24T08:55:47;21.40;91.00
47805;DHT22;33568;45.286;9.900;2023-04-24T08:58:16;21.90;90.60
47805;DHT22;33568;45.286;9.900;2023-04-24T09:00:42;22.20;89.50
47805;DHT22;33568;45.286;9.900;2023-04-24T09:03:15;22.50;88.90
47805;DHT22;33568;45.286;9.900;2023-04-24T09:05:47;22.80;86.50
47805;DHT22;33568;45.286;9.900;2023-04-24T09:08:14;22.70;85.00
47805;DHT22;33568;45.286;9.900;2023-04-24T09:10:42;22.20;86.00
47805;DHT22;33568;45.286;9.900;2023-04-24T09:13:09;21.80;87.50
47805;DHT22;33568;45.286;9.900;2023-04-24T09:15:37;21.70;87.90
47805;DHT22;33568;45.286;9.900;2023-04-24T09:18:04;21.90;87.20
47805;DHT22;33568;45.286;9.900;2023-04-24T09:20:31;22.30;85.70
47805;DHT22;33568;45.286;9.900;2023-04-24T09:22:58;22.60;84.00
47805;DHT22;33568;45.286;9.900;2023-04-24T09:25:31;22.90;83.10
47805;DHT22;33568;45.286;9.900;2023-04-24T09:28:03;23.10;81.40
47805;DHT22;33568;45.286;9.900;2023-04-24T09:30:30;23.10;80.00
47805;DHT22;33568;45.286;9.900;2023-04-24T09:33:14;23.20;79.70
47805;DHT22;33568;45.286;9.900;2023-04-24T09:35:51;23.40;77.20
47805;DHT22;33568;45.286;9.900;2023-04-24T09:38:17;23.50;77.10
47805;DHT22;33568;45.286;9.900;2023-04-24T09:40:44;23.10;77.30
47805;DHT22;33568;45.286;9.900;2023-04-24T09:43:11;22.90;79.30
47805;DHT22;33568;45.286;9.900;2023-04-24T09:45:39;22.80;78.60
47805;DHT22;33568;45.286;9.900;2023-04-24T09:48:09;22.90;77.40
47805;DHT22;33568;45.286;9.900;2023-04-24T09:50:36;23.20;76.50
47805;DHT22;33568;45.286;9.900;2023-04-24T09:53:04;23.50;75.70
47805;DHT22;33568;45.286;9.900;2023-04-24T09:55:30;23.60;75.10
47805;DHT22;33568;45.286;9.900;2023-04-24T09:57:59;23.90;74.90
47805;DHT22;33568;45.286;9.900;2023-04-24T10:00:32;23.90;74.00
47805;DHT22;33568;45.286;9.900;2023-04-24T10:03:00;23.60;73.50
47805;DHT22;33568;45.286;9.900;2023-04-24T10:05:30;23.70;73.00
47805;DHT22;33568;45.286;9.900;2023-04-24T10:08:08;23.90;72.00
47805;DHT22;33568;45.286;9.900;2023-04-24T10:10:39;24.20;71.60
47805;DHT22;33568;45.286;9.900;2023-04-24T10:13:07;24.20;70.40
47805;DHT22;33568;45.286;9.900;2023-04-24T10:15:34;23.80;70.20
47805;DHT22;33568;45.286;9.900;2023-04-24T10:18:02;23.60;70.40
47805;DHT22;33568;45.286;9.900;2023-04-24T10:20:30;23.60;70.10
47805;DHT22;33568;45.286;9.900;2023-04-24T10:22:57;23.60;69.80
47805;DHT22;33568;45.286;9.900;2023-04-24T10:25:27;23.80;69.30
47805;DHT22;33568;45.286;9.900;2023-04-24T10:27:54;24.10;69.30
47805;DHT22;33568;45.286;9.900;2023-04-24T10:30:28;24.00;67.90
47805;DHT22;33568;45.286;9.900;2023-04-24T10:32:54;24.00;67.30
47805;DHT22;33568;45.286;9.900;2023-04-24T10:35:22;24.20;67.20
47805;DHT22;33568;45.286;9.900;2023-04-24T10:37:58;24.50;66.20
47805;DHT22;33568;45.286;9.900;2023-04-24T10:40:33;24.70;65.90
47805;DHT22;33568;45.286;9.900;2023-04-24T10:43:07;24.90;65.40
47805;DHT22;33568;45.286;9.900;2023-04-24T10:45:37;24.90;64.60
47805;DHT22;33568;45.286;9.900;2023-04-24T10:48:06;25.00;64.40
47805;DHT22;33568;45.286;9.900;2023-04-24T10:50:47;25.00;63.90
47805;DHT22;33568;45.286;9.900;2023-04-24T10:53:19;25.00;63.60
47805;DHT22;33568;45.286;9.900;2023-04-24T10:55:50;25.10;63.90
47805;DHT22;33568;45.286;9.900;2023-04-24T10:58:22;25.20;64.30
47805;DHT22;33568;45.286;9.900;2023-04-24T11:00:59;25.20;64.70
47805;DHT22;33568;45.286;9.900;2023-04-24T11:03:27;25.10;63.00
47805;DHT22;33568;45.286;9.900;2023-04-24T11:11:13;24.90;63.30
47805;DHT22;33568;45.286;9.900;2023-04-24T11:19:00;25.20;62.90
47805;DHT22;33568;45.286;9.900;2023-04-24T11:21:38;25.30;62.10
47805;DHT22;33568;45.286;9.900;2023-04-24T11:24:33;25.40;61.80
47805;DHT22;33568;45.286;9.900;2023-04-24T11:27:16;25.40;60.70
47805;DHT22;33568;45.286;9.900;2023-04-24T11:30:01;25.50;62.00
47805;DHT22;33568;45.286;9.900;2023-04-24T11:32:29;25.50;61.00
47805;DHT22;33568;45.286;9.900;2023-04-24T11:35:00;25.40;61.90
47805;DHT22;33568;45.286;9.900;2023-04-24T11:37:38;25.40;61.50
47805;DHT22;33568;45.286;9.900;2023-04-24T11:40:08;25.30;61.40
47805;DHT22;33568;45.286;9.900;2023-04-24T11:42:36;25.40;61.20
47805;DHT22;33568;45.286;9.900;2023-04-24T11:47:33;25.50;61.40
47805;DHT22;33568;45.286;9.900;2023-04-24T11:50:01;25.60;61.30
47805;DHT22;33568;45.286;9.900;2023-04-24T11:52:30;25.60;61.10
47805;DHT22;33568;45.286;9.900;2023-04-24T11:54:56;25.80;60.40
47805;DHT22;33568;45.286;9.900;2023-04-24T11:57:24;26.10;60.10
47805;DHT22;33568;45.286;9.900;2023-04-24T11:59:54;26.10;59.10
47805;DHT22;33568;45.286;9.900;2023-04-24T12:02:22;26.20;58.70
47805;DHT22;33568;45.286;9.900;2023-04-24T12:04:48;26.00;58.30
47805;DHT22;33568;45.286;9.900;2023-04-24T12:07:15;26.10;58.70
47805;DHT22;33568;45.286;9.900;2023-04-24T12:09:42;26.00;58.20
47805;DHT22;33568;45.286;9.900;2023-04-24T12:12:09;26.10;57.90
47805;DHT22;33568;45.286;9.900;2023-04-24T12:15:08;26.10;57.60
47805;DHT22;33568;45.286;9.900;2023-04-24T12:17:35;26.00;55.80
47805;DHT22;33568;45.286;9.900;2023-04-24T12:20:07;26.30;57.20
47805;DHT22;33568;45.286;9.900;2023-04-24T12:25:19;26.20;55.90
47805;DHT22;33568;45.286;9.900;2023-04-24T12:27:51;26.20;56.70
47805;DHT22;33568;45.286;9.900;2023-04-24T12:30:18;26.10;57.00
47805;DHT22;33568;45.286;9.900;2023-04-24T12:32:49;26.30;57.20
47805;DHT22;33568;45.286;9.900;2023-04-24T12:35:20;26.40;57.00
47805;DHT22;33568;45.286;9.900;2023-04-24T12:37:47;26.60;56.10
47805;DHT22;33568;45.286;9.900;2023-04-24T12:40:14;26.70;55.50
47805;DHT22;33568;45.286;9.900;2023-04-24T12:42:46;26.70;54.60
47805;DHT22;33568;45.286;9.900;2023-04-24T12:45:13;26.70;53.70
47805;DHT22;33568;45.286;9.900;2023-04-24T12:47:41;26.80;53.70
47805;DHT22;33568;45.286;9.900;2023-04-24T12:50:13;27.00;53.20
47805;DHT22;33568;45.286;9.900;2023-04-24T12:52:40;26.90;52.60
47805;DHT22;33568;45.286;9.900;2023-04-24T12:55:08;27.00;52.50
47805;DHT22;33568;45.286;9.900;2023-04-24T12:57:36;27.10;51.40
47805;DHT22;33568;45.286;9.900;2023-04-24T13:00:04;27.20;50.80
47805;DHT22;33568;45.286;9.900;2023-04-24T13:02:31;27.30;50.90
47805;DHT22;33568;45.286;9.900;2023-04-24T13:04:58;27.20;50.50
47805;DHT22;33568;45.286;9.900;2023-04-24T13:07:25;27.10;50.60
47805;DHT22;33568;45.286;9.900;2023-04-24T13:09:55;27.20;50.80
47805;DHT22;33568;45.286;9.900;2023-04-24T13:12:21;27.20;50.80
47805;DHT22;33568;45.286;9.900;2023-04-24T13:14:49;27.30;49.80
47805;DHT22;33568;45.286;9.900;2023-04-24T13:17:16;27.40;49.20
47805;DHT22;33568;45.286;9.900;2023-04-24T13:19:43;27.60;48.50
47805;DHT22;33568;45.286;9.900;2023-04-24T13:22:11;27.70;48.60
47805;DHT22;33568;45.286;9.900;2023-04-24T13:24:38;27.80;48.60
47805;DHT22;33568;45.286;9.900;2023-04-24T13:27:07;27.90;47.90
47805;DHT22;33568;45.286;9.900;2023-04-24T13:29:33;27.70;47.10
47805;DHT22;33568;45.286;9.900;2023-04-24T13:32:00;27.80;46.90
47805;DHT22;33568;45.286;9.900;2023-04-24T13:34:27;27.70;46.90
47805;DHT22;33568;45.286;9.900;2023-04-24T13:36:54;27.70;46.90
47805;DHT22;33568;45.286;9.900;2023-04-24T13:39:22;27.70;46.20
47805;DHT22;33568;45.286;9.900;2023-04-24T13:41:48;27.70;45.40
47805;DHT22;33568;45.286;9.900;2023-04-24T13:44:19;27.70;44.90
47805;DHT22;33568;45.286;9.900;2023-04-24T13:46:47;27.70;43.20
47805;DHT22;33568;45.286;9.900;2023-04-24T13:49:14;27.70;43.40
47805;DHT22;33568;45.286;9.900;2023-04-24T13:51:42;27.60;43.10
47805;DHT22;33568;45.286;9.900;2023-04-24T13:54:08;27.60;42.60
47805;DHT22;33568;45.286;9.900;2023-04-24T13:56:36;27.70;42.60
47805;DHT22;33568;45.286;9.900;2023-04-24T13:59:02;27.70;42.40
47805;DHT22;33568;45.286;9.900;2023-04-24T14:01:29;27.80;42.50
47805;DHT22;33568;45.286;9.900;2023-04-24T14:03:55;27.80;42.30
47805;DHT22;33568;45.286;9.900;2023-04-24T14:06:22;27.70;41.90
47805;DHT22;33568;45.286;9.900;2023-04-24T14:08:49;27.70;41.40
47805;DHT22;33568;45.286;9.900;2023-04-24T14:11:17;27.60;41.80
47805;DHT22;33568;45.286;9.900;2023-04-24T14:13:44;27.50;41.00
47805;DHT22;33568;45.286;9.900;2023-04-24T14:16:11;27.50;41.10
47805;DHT22;33568;45.286;9.900;2023-04-24T14:18:37;27.50;41.10
47805;DHT22;33568;45.286;9.900;2023-04-24T14:21:04;27.50;41.00
47805;DHT22;33568;45.286;9.900;2023-04-24T14:23:31;27.60;41.10
47805;DHT22;33568;45.286;9.900;2023-04-24T14:25:58;27.70;40.90
47805;DHT22;33568;45.286;9.900;2023-04-24T14:28:25;27.80;40.80
47805;DHT22;33568;45.286;9.900;2023-04-24T14:30:52;27.90;40.90
47805;DHT22;33568;45.286;9.900;2023-04-24T14:33:19;28.00;40.30
47805;DHT22;33568;45.286;9.900;2023-04-24T14:35:46;28.10;39.60
47805;DHT22;33568;45.286;9.900;2023-04-24T14:38:12;28.10;37.90
47805;DHT22;33568;45.286;9.900;2023-04-24T14:40:39;28.10;37.20
47805;DHT22;33568;45.286;9.900;2023-04-24T14:43:06;28.00;37.10
47805;DHT22;33568;45.286;9.900;2023-04-24T14:45:33;28.10;37.80
47805;DHT22;33568;45.286;9.900;2023-04-24T14:47:59;28.20;37.80
47805;DHT22;33568;45.286;9.900;2023-04-24T14:50:26;28.30;37.20
47805;DHT22;33568;45.286;9.900;2023-04-24T14:52:55;28.30;36.40
47805;DHT22;33568;45.286;9.900;2023-04-24T14:55:25;28.10;35.90
47805;DHT22;33568;45.286;9.900;2023-04-24T14:57:52;27.90;36.10
47805;DHT22;33568;45.286;9.900;2023-04-24T15:00:19;27.70;36.00
47805;DHT22;33568;45.286;9.900;2023-04-24T15:02:46;27.90;36.20
47805;DHT22;33568;45.286;9.900;2023-04-24T15:05:12;27.90;36.00
47805;DHT22;33568;45.286;9.900;2023-04-24T15:07:39;27.80;35.10
47805;DHT22;33568;45.286;9.900;2023-04-24T15:10:07;27.70;35.20
47805;DHT22;33568;45.286;9.900;2023-04-24T15:12:34;27.70;35.30
47805;DHT22;33568;45.286;9.900;2023-04-24T15:15:01;27.90;35.90
47805;DHT22;33568;45.286;9.900;2023-04-24T15:17:29;27.90;35.30
47805;DHT22;33568;45.286;9.900;2023-04-24T15:19:56;27.80;35.30
47805;DHT22;33568;45.286;9.900;2023-04-24T15:22:23;27.80;35.40
47805;DHT22;33568;45.286;9.900;2023-04-24T15:24:49;27.90;35.40
47805;DHT22;33568;45.286;9.900;2023-04-24T15:27:15;28.10;35.30
47805;DHT22;33568;45.286;9.900;2023-04-24T15:29:42;28.10;34.90
47805;DHT22;33568;45.286;9.900;2023-04-24T15:32:08;28.00;34.70
47805;DHT22;33568;45.286;9.900;2023-04-24T15:34:35;28.10;34.60
47805;DHT22;33568;45.286;9.900;2023-04-24T15:37:01;28.10;34.60
47805;DHT22;33568;45.286;9.900;2023-04-24T15:39:27;28.00;34.40
47805;DHT22;33568;45.286;9.900;2023-04-24T15:41:54;27.90;34.60
47805;DHT22;33568;45.286;9.900;2023-04-24T15:44:21;27.70;34.70
47805;DHT22;33568;45.286;9.900;2023-04-24T15:46:48;27.80;35.10
47805;DHT22;33568;45.286;9.900;2023-04-24T15:49:14;27.80;35.00
47805;DHT22;33568;45.286;9.900;2023-04-24T15:51:41;27.80;34.80